THY34 HAAB-LTFM
Flight info
| Callsign | THY34 |
|---|---|
| Flight time | 5h 5m |
| Altitude | 32000 |
| Route | LABLA2A LABLA UT446 BDR UT124 ALRAP/N0482F310 DCT KSL/N0480F320 DCT TOMRU P751 UMINI/N0474F340 P751 AST W8 ALPID/N0463F350 DCT GESON/N0465F340 DCT LAGVI Q777 RASDA M855 TOMBI UM855 LEMDA UA16 KFK UM855 SISPI |
| Aircraft | B739/M-SDE2E3FGHIRWXY/LB1 |
Departure
| Time | 2026-05-04 12:27 |
|---|---|
| Airport | Addis Ababa Bole International Airport (HAAB) |
Arrival
| Time | 2026-05-04 17:33 |
|---|---|
| Airport | İstanbul Airport (LTFM) |
| Time | Latitude | Longitude | Altitude | Speed | Heading |
|---|---|---|---|---|---|
| 2026-05-04 12:14 | 8.97867 | 38.79023 | 7632 ft | 0 kts | 165° |
| 2026-05-04 12:18 | 8.97872 | 38.79022 | 7633 ft | 1 kts | 181° |
| 2026-05-04 12:18 | 8.97887 | 38.79021 | 7633 ft | 2 kts | 162° |
| 2026-05-04 12:18 | 8.97901 | 38.79016 | 7633 ft | 2 kts | 165° |
| 2026-05-04 12:19 | 8.97916 | 38.79013 | 7633 ft | 2 kts | 193° |
| 2026-05-04 12:19 | 8.97929 | 38.79022 | 7633 ft | 2 kts | 237° |
| 2026-05-04 12:19 | 8.97932 | 38.79029 | 7632 ft | 1 kts | 260° |
| 2026-05-04 12:19 | 8.97933 | 38.79033 | 7632 ft | 0 kts | 255° |
| 2026-05-04 12:21 | 8.97932 | 38.79029 | 7632 ft | 1 kts | 255° |
| 2026-05-04 12:21 | 8.97929 | 38.79017 | 7633 ft | 2 kts | 255° |
| 2026-05-04 12:22 | 8.97924 | 38.79000 | 7633 ft | 2 kts | 254° |
| 2026-05-04 12:22 | 8.97918 | 38.78978 | 7633 ft | 3 kts | 259° |
| 2026-05-04 12:22 | 8.97918 | 38.78950 | 7634 ft | 4 kts | 273° |
| 2026-05-04 12:22 | 8.97918 | 38.78919 | 7634 ft | 4 kts | 262° |
| 2026-05-04 12:23 | 8.97906 | 38.78880 | 7634 ft | 7 kts | 252° |
| 2026-05-04 12:23 | 8.97888 | 38.78823 | 7634 ft | 9 kts | 252° |
| 2026-05-04 12:23 | 8.97857 | 38.78762 | 7633 ft | 11 kts | 216° |
| 2026-05-04 12:23 | 8.97788 | 38.78711 | 7632 ft | 13 kts | 248° |
| 2026-05-04 12:24 | 8.97756 | 38.78602 | 7629 ft | 17 kts | 255° |
| 2026-05-04 12:24 | 8.97760 | 38.78505 | 7627 ft | 14 kts | 318° |
| 2026-05-04 12:24 | 8.97777 | 38.78409 | 7624 ft | 17 kts | 256° |
| 2026-05-04 12:24 | 8.97738 | 38.78265 | 7613 ft | 25 kts | 250° |
| 2026-05-04 12:25 | 8.97675 | 38.78194 | 7604 ft | 11 kts | 191° |
| 2026-05-04 12:25 | 8.97578 | 38.78211 | 7600 ft | 16 kts | 161° |
| 2026-05-04 12:25 | 8.97452 | 38.78254 | 7595 ft | 21 kts | 154° |
| 2026-05-04 12:25 | 8.97436 | 38.78374 | 7604 ft | 16 kts | 70° |
| 2026-05-04 12:26 | 8.97464 | 38.78458 | 7610 ft | 0 kts | 73° |
| 2026-05-04 12:26 | 8.97488 | 38.78541 | 7615 ft | 32 kts | 75° |
| 2026-05-04 12:26 | 8.97590 | 38.78904 | 7628 ft | 74 kts | 73° |
| 2026-05-04 12:26 | 8.97784 | 38.79546 | 7630 ft | 114 kts | 75° |
| 2026-05-04 12:27 | 8.98055 | 38.80442 | 7621 ft | 153 kts | 74° |
| 2026-05-04 12:27 | 8.98382 | 38.81611 | 7619 ft | 183 kts | 75° |
| 2026-05-04 12:27 | 8.98734 | 38.82841 | 8074 ft | 178 kts | 76° |
| 2026-05-04 12:27 | 8.99057 | 38.84045 | 8469 ft | 181 kts | 76° |
| 2026-05-04 12:28 | 8.99356 | 38.85310 | 8602 ft | 188 kts | 81° |
| 2026-05-04 12:28 | 8.99535 | 38.86631 | 8683 ft | 195 kts | 82° |
| 2026-05-04 12:28 | 8.99723 | 38.88023 | 8774 ft | 200 kts | 81° |
| 2026-05-04 12:28 | 8.99919 | 38.89433 | 8911 ft | 203 kts | 92° |
| 2026-05-04 12:29 | 8.99436 | 38.90769 | 9018 ft | 210 kts | 130° |
| 2026-05-04 12:29 | 8.98147 | 38.91476 | 9134 ft | 220 kts | 169° |
| 2026-05-04 12:29 | 8.96613 | 38.91283 | 9291 ft | 227 kts | 201° |
| 2026-05-04 12:29 | 8.95247 | 38.90420 | 9481 ft | 230 kts | 213° |
| 2026-05-04 12:30 | 8.93944 | 38.89475 | 9658 ft | 231 kts | 212° |
| 2026-05-04 12:30 | 8.92635 | 38.88484 | 9753 ft | 239 kts | 224° |
| 2026-05-04 12:30 | 8.91806 | 38.86995 | 9795 ft | 249 kts | 259° |
| 2026-05-04 12:30 | 8.91846 | 38.85241 | 9839 ft | 256 kts | 289° |
| 2026-05-04 12:31 | 8.92617 | 38.83587 | 9901 ft | 261 kts | 307° |
| 2026-05-04 12:31 | 8.93872 | 38.82242 | 9933 ft | 266 kts | 327° |
| 2026-05-04 12:31 | 8.95454 | 38.81188 | 9976 ft | 275 kts | 332° |
| 2026-05-04 12:31 | 8.97106 | 38.80165 | 10129 ft | 281 kts | 330° |
| 2026-05-04 12:32 | 8.98757 | 38.78991 | 10204 ft | 292 kts | 324° |
| 2026-05-04 12:32 | 9.01914 | 38.76171 | 10478 ft | 307 kts | 320° |
| 2026-05-04 12:32 | 9.03521 | 38.74696 | 10536 ft | 316 kts | 321° |
| 2026-05-04 12:33 | 9.05217 | 38.73174 | 10573 ft | 326 kts | 321° |
| 2026-05-04 12:33 | 9.06930 | 38.71662 | 10725 ft | 331 kts | 321° |
| 2026-05-04 12:33 | 9.08676 | 38.70126 | 10971 ft | 332 kts | 322° |
| 2026-05-04 12:33 | 9.10449 | 38.68562 | 11255 ft | 336 kts | 321° |
| 2026-05-04 12:34 | 9.12258 | 38.66962 | 11703 ft | 344 kts | 321° |
| 2026-05-04 12:34 | 9.14091 | 38.65346 | 12015 ft | 357 kts | 322° |
| 2026-05-04 12:34 | 9.16003 | 38.63662 | 12304 ft | 369 kts | 321° |
| 2026-05-04 12:34 | 9.17992 | 38.61910 | 12452 ft | 380 kts | 321° |
| 2026-05-04 12:35 | 9.20007 | 38.60135 | 12528 ft | 392 kts | 321° |
| 2026-05-04 12:35 | 9.22123 | 38.58268 | 12712 ft | 401 kts | 321° |
| 2026-05-04 12:35 | 9.24234 | 38.56403 | 13114 ft | 403 kts | 321° |
| 2026-05-04 12:35 | 9.26457 | 38.54602 | 13529 ft | 403 kts | 327° |
| 2026-05-04 12:36 | 9.28900 | 38.53194 | 13883 ft | 402 kts | 338° |
| 2026-05-04 12:36 | 9.31491 | 38.52160 | 14237 ft | 403 kts | 343° |
| 2026-05-04 12:36 | 9.34161 | 38.51279 | 14579 ft | 405 kts | 345° |
| 2026-05-04 12:36 | 9.36883 | 38.50425 | 14908 ft | 407 kts | 345° |
| 2026-05-04 12:37 | 9.39600 | 38.49559 | 15263 ft | 410 kts | 344° |
| 2026-05-04 12:37 | 9.42358 | 38.48650 | 15635 ft | 412 kts | 343° |
| 2026-05-04 12:37 | 9.45092 | 38.47718 | 16004 ft | 415 kts | 343° |
| 2026-05-04 12:37 | 9.47847 | 38.46759 | 16374 ft | 417 kts | 343° |
| 2026-05-04 12:38 | 9.50576 | 38.45795 | 16721 ft | 420 kts | 342° |
| 2026-05-04 12:38 | 9.53376 | 38.44800 | 17107 ft | 422 kts | 342° |
| 2026-05-04 12:38 | 9.56167 | 38.43804 | 17504 ft | 424 kts | 342° |
| 2026-05-04 12:38 | 9.58979 | 38.42800 | 17863 ft | 427 kts | 342° |
| 2026-05-04 12:39 | 9.61780 | 38.41800 | 18210 ft | 430 kts | 342° |
| 2026-05-04 12:39 | 9.64612 | 38.40789 | 18542 ft | 433 kts | 342° |
| 2026-05-04 12:39 | 9.67511 | 38.39755 | 18886 ft | 435 kts | 342° |
| 2026-05-04 12:39 | 9.70358 | 38.38685 | 19219 ft | 438 kts | 339° |
| 2026-05-04 12:40 | 9.73166 | 38.37416 | 19516 ft | 441 kts | 335° |
| 2026-05-04 12:40 | 9.75930 | 38.36003 | 19828 ft | 444 kts | 334° |
| 2026-05-04 12:40 | 9.78658 | 38.34534 | 20131 ft | 446 kts | 333° |
| 2026-05-04 12:40 | 9.81432 | 38.33011 | 20428 ft | 448 kts | 332° |
| 2026-05-04 12:41 | 9.84191 | 38.31494 | 20747 ft | 449 kts | 332° |
| 2026-05-04 12:41 | 9.86959 | 38.29979 | 21037 ft | 451 kts | 332° |
| 2026-05-04 12:41 | 9.89744 | 38.28463 | 21318 ft | 454 kts | 332° |
| 2026-05-04 12:41 | 9.92527 | 38.26957 | 21579 ft | 456 kts | 332° |
| 2026-05-04 12:42 | 9.95369 | 38.25425 | 21844 ft | 458 kts | 332° |
| 2026-05-04 12:42 | 9.98187 | 38.23911 | 22119 ft | 460 kts | 332° |
| 2026-05-04 12:42 | 10.01060 | 38.22369 | 22375 ft | 462 kts | 333° |
| 2026-05-04 12:42 | 10.03916 | 38.20837 | 22637 ft | 464 kts | 332° |
| 2026-05-04 12:43 | 10.06770 | 38.19308 | 22899 ft | 466 kts | 333° |
| 2026-05-04 12:43 | 10.09687 | 38.17746 | 23164 ft | 469 kts | 333° |
| 2026-05-04 12:43 | 10.12578 | 38.16196 | 23438 ft | 470 kts | 333° |
| 2026-05-04 12:43 | 10.15471 | 38.14646 | 23714 ft | 472 kts | 333° |
| 2026-05-04 12:44 | 10.18395 | 38.13080 | 24040 ft | 472 kts | 333° |
| 2026-05-04 12:44 | 10.21300 | 38.11523 | 24312 ft | 474 kts | 332° |
| 2026-05-04 12:44 | 10.24250 | 38.09941 | 24554 ft | 476 kts | 333° |
| 2026-05-04 12:44 | 10.27195 | 38.08362 | 24826 ft | 477 kts | 333° |
| 2026-05-04 12:45 | 10.30134 | 38.06786 | 25073 ft | 479 kts | 333° |
| 2026-05-04 12:45 | 10.33089 | 38.05200 | 25277 ft | 481 kts | 333° |
| 2026-05-04 12:45 | 10.36097 | 38.03585 | 25543 ft | 483 kts | 332° |
| 2026-05-04 12:45 | 10.39083 | 38.01982 | 25815 ft | 483 kts | 333° |
| 2026-05-04 12:46 | 10.42055 | 38.00387 | 26307 ft | 479 kts | 332° |
| 2026-05-04 12:46 | 10.44973 | 37.98821 | 26770 ft | 475 kts | 332° |
| 2026-05-04 12:46 | 10.47900 | 37.97248 | 27154 ft | 473 kts | 332° |
| 2026-05-04 12:46 | 10.50820 | 37.95681 | 27537 ft | 471 kts | 332° |
| 2026-05-04 12:47 | 10.53732 | 37.94115 | 27866 ft | 471 kts | 332° |
| 2026-05-04 12:47 | 10.56629 | 37.92555 | 28199 ft | 470 kts | 331° |
| 2026-05-04 12:47 | 10.59501 | 37.90954 | 28447 ft | 471 kts | 330° |
| 2026-05-04 12:47 | 10.62358 | 37.89305 | 28741 ft | 470 kts | 329° |
| 2026-05-04 12:48 | 10.65181 | 37.87648 | 29052 ft | 470 kts | 329° |
| 2026-05-04 12:48 | 10.68021 | 37.85977 | 29348 ft | 469 kts | 329° |
| 2026-05-04 12:48 | 10.70855 | 37.84308 | 29626 ft | 469 kts | 329° |
| 2026-05-04 12:48 | 10.73687 | 37.82640 | 29911 ft | 469 kts | 329° |
| 2026-05-04 12:49 | 10.76529 | 37.80969 | 30243 ft | 467 kts | 329° |
| 2026-05-04 12:49 | 10.79327 | 37.79327 | 30561 ft | 466 kts | 329° |
| 2026-05-04 12:49 | 10.82149 | 37.77675 | 30807 ft | 466 kts | 329° |
| 2026-05-04 12:49 | 10.84945 | 37.76040 | 31055 ft | 466 kts | 329° |
| 2026-05-04 12:50 | 10.87760 | 37.74396 | 31322 ft | 466 kts | 329° |
| 2026-05-04 12:50 | 10.90595 | 37.72741 | 31568 ft | 466 kts | 329° |
| 2026-05-04 12:50 | 10.93424 | 37.71090 | 31843 ft | 465 kts | 329° |
| 2026-05-04 12:50 | 10.96196 | 37.69473 | 32099 ft | 464 kts | 329° |
| 2026-05-04 12:51 | 10.99011 | 37.67829 | 32342 ft | 464 kts | 329° |
| 2026-05-04 12:51 | 11.01809 | 37.66197 | 32510 ft | 464 kts | 329° |
| 2026-05-04 12:51 | 11.04639 | 37.64545 | 32507 ft | 466 kts | 329° |
| 2026-05-04 12:52 | 11.10266 | 37.61258 | 32484 ft | 464 kts | 329° |
| 2026-05-04 12:52 | 11.15865 | 37.57987 | 32471 ft | 465 kts | 329° |
| 2026-05-04 12:53 | 11.21495 | 37.54694 | 32464 ft | 464 kts | 329° |
| 2026-05-04 12:53 | 11.27107 | 37.51413 | 32462 ft | 464 kts | 329° |
| 2026-05-04 12:54 | 11.32705 | 37.48136 | 32444 ft | 464 kts | 329° |
| 2026-05-04 12:54 | 11.38290 | 37.44866 | 32424 ft | 463 kts | 329° |
| 2026-05-04 12:55 | 11.43913 | 37.41572 | 32402 ft | 465 kts | 329° |
| 2026-05-04 12:55 | 11.49533 | 37.38279 | 32386 ft | 465 kts | 329° |
| 2026-05-04 12:56 | 11.55160 | 37.34980 | 32385 ft | 465 kts | 329° |
| 2026-05-04 12:56 | 11.60788 | 37.31681 | 32383 ft | 465 kts | 329° |
| 2026-05-04 12:57 | 11.66499 | 37.28507 | 32382 ft | 465 kts | 331° |
| 2026-05-04 12:57 | 11.72273 | 37.25465 | 32377 ft | 465 kts | 332° |
| 2026-05-04 12:58 | 11.78091 | 37.22410 | 32368 ft | 465 kts | 332° |
| 2026-05-04 12:58 | 11.83867 | 37.19355 | 32358 ft | 465 kts | 332° |
| 2026-05-04 12:59 | 11.89632 | 37.16289 | 32341 ft | 465 kts | 331° |
| 2026-05-04 12:59 | 11.95358 | 37.13235 | 32323 ft | 465 kts | 331° |
| 2026-05-04 13:00 | 12.01129 | 37.10150 | 32301 ft | 466 kts | 331° |
| 2026-05-04 13:00 | 12.06867 | 37.07081 | 32304 ft | 465 kts | 332° |
| 2026-05-04 13:01 | 12.12633 | 37.03995 | 32294 ft | 465 kts | 331° |
| 2026-05-04 13:01 | 12.18380 | 37.00918 | 32307 ft | 464 kts | 331° |
| 2026-05-04 13:02 | 12.24113 | 36.97847 | 32301 ft | 464 kts | 331° |
| 2026-05-04 13:02 | 12.29845 | 36.94775 | 32276 ft | 463 kts | 331° |
| 2026-05-04 13:03 | 12.35581 | 36.91700 | 32247 ft | 463 kts | 331° |
| 2026-05-04 13:03 | 12.41289 | 36.88639 | 32197 ft | 462 kts | 331° |
| 2026-05-04 13:04 | 12.47025 | 36.85560 | 32179 ft | 464 kts | 331° |
| 2026-05-04 13:04 | 12.52763 | 36.82478 | 32125 ft | 464 kts | 331° |
| 2026-05-04 13:05 | 12.58477 | 36.79408 | 32085 ft | 463 kts | 331° |
| 2026-05-04 13:05 | 12.64230 | 36.76316 | 32100 ft | 463 kts | 331° |
| 2026-05-04 13:06 | 12.69960 | 36.73233 | 32089 ft | 462 kts | 331° |
| 2026-05-04 13:06 | 12.75680 | 36.70187 | 32072 ft | 462 kts | 332° |
| 2026-05-04 13:07 | 12.81461 | 36.67179 | 32056 ft | 462 kts | 332° |
| 2026-05-04 13:07 | 12.87263 | 36.64172 | 32031 ft | 463 kts | 332° |
| 2026-05-04 13:08 | 12.93038 | 36.61171 | 32036 ft | 463 kts | 332° |
| 2026-05-04 13:08 | 12.98857 | 36.58147 | 32008 ft | 462 kts | 332° |
| 2026-05-04 13:09 | 13.04591 | 36.55161 | 31994 ft | 462 kts | 332° |
| 2026-05-04 13:09 | 13.10395 | 36.52135 | 31985 ft | 462 kts | 332° |
| 2026-05-04 13:10 | 13.16183 | 36.49115 | 31966 ft | 463 kts | 332° |
| 2026-05-04 13:10 | 13.21972 | 36.46094 | 31953 ft | 464 kts | 332° |
| 2026-05-04 13:11 | 13.27745 | 36.43079 | 31951 ft | 464 kts | 332° |
| 2026-05-04 13:11 | 13.33524 | 36.40059 | 31944 ft | 464 kts | 332° |
| 2026-05-04 13:12 | 13.39280 | 36.37052 | 31939 ft | 464 kts | 332° |
| 2026-05-04 13:12 | 13.45087 | 36.34015 | 31913 ft | 465 kts | 332° |
| 2026-05-04 13:13 | 13.50859 | 36.30994 | 31901 ft | 464 kts | 332° |
| 2026-05-04 13:13 | 13.56634 | 36.27970 | 31888 ft | 465 kts | 332° |
| 2026-05-04 13:14 | 13.62409 | 36.25001 | 31880 ft | 466 kts | 334° |
| 2026-05-04 13:14 | 13.68654 | 36.23134 | 31872 ft | 468 kts | 354° |
| 2026-05-04 13:15 | 13.75204 | 36.23173 | 31873 ft | 471 kts | 2° |
| 2026-05-04 13:15 | 13.81792 | 36.23637 | 31858 ft | 471 kts | 3° |
| 2026-05-04 13:16 | 13.88339 | 36.24139 | 31857 ft | 473 kts | 3° |
| 2026-05-04 13:16 | 13.94928 | 36.24609 | 31867 ft | 473 kts | 2° |
| 2026-05-04 13:17 | 14.01501 | 36.25046 | 31868 ft | 472 kts | 2° |
| 2026-05-04 13:17 | 14.08069 | 36.25463 | 31858 ft | 472 kts | 2° |
| 2026-05-04 13:18 | 14.14672 | 36.25874 | 31860 ft | 472 kts | 2° |
| 2026-05-04 13:18 | 14.21259 | 36.26283 | 31855 ft | 472 kts | 2° |
| 2026-05-04 13:19 | 14.27864 | 36.26692 | 31854 ft | 473 kts | 2° |
| 2026-05-04 13:19 | 14.34468 | 36.27101 | 31859 ft | 473 kts | 2° |
| 2026-05-04 13:20 | 14.41067 | 36.27509 | 31866 ft | 473 kts | 2° |
| 2026-05-04 13:20 | 14.47662 | 36.27919 | 31870 ft | 473 kts | 2° |
| 2026-05-04 13:21 | 14.54248 | 36.28327 | 31874 ft | 473 kts | 2° |
| 2026-05-04 13:21 | 14.60832 | 36.28735 | 31868 ft | 473 kts | 2° |
| 2026-05-04 13:22 | 14.67459 | 36.29147 | 31874 ft | 473 kts | 2° |
| 2026-05-04 13:22 | 14.74038 | 36.29556 | 31868 ft | 473 kts | 2° |
| 2026-05-04 13:23 | 14.80612 | 36.29964 | 31863 ft | 473 kts | 2° |
| 2026-05-04 13:23 | 14.87227 | 36.30376 | 31866 ft | 475 kts | 2° |
| 2026-05-04 13:24 | 14.93823 | 36.30788 | 31863 ft | 474 kts | 2° |
| 2026-05-04 13:24 | 15.00474 | 36.31202 | 31860 ft | 474 kts | 2° |
| 2026-05-04 13:25 | 15.10343 | 36.31818 | 31854 ft | 472 kts | 2° |
| 2026-05-04 13:25 | 15.16947 | 36.32231 | 31851 ft | 473 kts | 2° |
| 2026-05-04 13:26 | 15.23518 | 36.32641 | 31857 ft | 473 kts | 2° |
| 2026-05-04 13:26 | 15.30121 | 36.33054 | 31857 ft | 473 kts | 2° |
| 2026-05-04 13:27 | 15.36720 | 36.33466 | 31848 ft | 473 kts | 2° |
| 2026-05-04 13:27 | 15.43285 | 36.33838 | 31850 ft | 472 kts | 0° |
| 2026-05-04 13:28 | 15.49880 | 36.33890 | 31851 ft | 472 kts | 358° |
| 2026-05-04 13:28 | 15.56431 | 36.33810 | 31850 ft | 471 kts | 357° |
| 2026-05-04 13:29 | 15.63013 | 36.33740 | 31845 ft | 470 kts | 358° |
| 2026-05-04 13:29 | 15.69605 | 36.33703 | 31845 ft | 470 kts | 358° |
| 2026-05-04 13:30 | 15.76160 | 36.33684 | 31846 ft | 471 kts | 358° |
| 2026-05-04 13:30 | 15.82750 | 36.33673 | 31843 ft | 471 kts | 358° |
| 2026-05-04 13:31 | 15.89340 | 36.33665 | 31841 ft | 472 kts | 358° |
| 2026-05-04 13:31 | 15.95895 | 36.33657 | 31839 ft | 470 kts | 358° |
| 2026-05-04 13:32 | 16.02428 | 36.33649 | 31838 ft | 469 kts | 358° |
| 2026-05-04 13:32 | 16.08981 | 36.33641 | 31839 ft | 470 kts | 358° |
| 2026-05-04 13:33 | 16.15554 | 36.33633 | 32094 ft | 470 kts | 358° |
| 2026-05-04 13:33 | 16.18841 | 36.33629 | 32264 ft | 470 kts | 358° |
| 2026-05-04 13:33 | 16.22107 | 36.33625 | 32424 ft | 470 kts | 358° |
| 2026-05-04 13:34 | 16.25414 | 36.33621 | 32600 ft | 469 kts | 358° |
| 2026-05-04 13:34 | 16.28697 | 36.33617 | 32819 ft | 468 kts | 358° |
| 2026-05-04 13:34 | 16.31982 | 36.33612 | 32947 ft | 469 kts | 358° |
| 2026-05-04 13:34 | 16.35299 | 36.33608 | 33109 ft | 469 kts | 358° |
| 2026-05-04 13:35 | 16.38599 | 36.33604 | 33298 ft | 469 kts | 358° |
| 2026-05-04 13:35 | 16.45118 | 36.33597 | 33640 ft | 468 kts | 358° |
| 2026-05-04 13:35 | 16.48404 | 36.33593 | 33808 ft | 468 kts | 358° |
| 2026-05-04 13:36 | 16.51687 | 36.33589 | 33834 ft | 468 kts | 358° |
| 2026-05-04 13:36 | 16.58231 | 36.33581 | 33837 ft | 468 kts | 358° |
| 2026-05-04 13:37 | 16.64734 | 36.33572 | 33834 ft | 468 kts | 358° |
| 2026-05-04 13:37 | 16.71259 | 36.33564 | 33834 ft | 468 kts | 358° |
| 2026-05-04 13:38 | 16.77809 | 36.33556 | 33837 ft | 468 kts | 358° |
| 2026-05-04 13:38 | 16.84389 | 36.33548 | 33841 ft | 469 kts | 358° |
| 2026-05-04 13:39 | 16.90932 | 36.33540 | 33848 ft | 469 kts | 358° |
| 2026-05-04 13:39 | 16.97453 | 36.33530 | 33856 ft | 469 kts | 358° |
| 2026-05-04 13:40 | 17.04002 | 36.33523 | 33853 ft | 469 kts | 358° |
| 2026-05-04 13:40 | 17.10552 | 36.33516 | 33867 ft | 469 kts | 358° |
| 2026-05-04 13:41 | 17.17126 | 36.33509 | 33862 ft | 468 kts | 358° |
| 2026-05-04 13:41 | 17.23649 | 36.33501 | 33875 ft | 468 kts | 358° |
| 2026-05-04 13:42 | 17.33457 | 36.33488 | 33882 ft | 469 kts | 358° |
| 2026-05-04 13:42 | 17.40000 | 36.33481 | 33895 ft | 469 kts | 358° |
| 2026-05-04 13:43 | 17.46544 | 36.33473 | 33903 ft | 469 kts | 357° |
| 2026-05-04 13:43 | 17.53084 | 36.33464 | 33914 ft | 468 kts | 357° |
| 2026-05-04 13:44 | 17.59592 | 36.33455 | 33916 ft | 469 kts | 357° |
| 2026-05-04 13:44 | 17.66127 | 36.33447 | 33912 ft | 468 kts | 357° |
| 2026-05-04 13:45 | 17.72678 | 36.33440 | 33930 ft | 468 kts | 357° |
| 2026-05-04 13:45 | 17.79196 | 36.33431 | 33922 ft | 469 kts | 357° |
| 2026-05-04 13:46 | 17.85753 | 36.33423 | 33927 ft | 468 kts | 357° |
| 2026-05-04 13:46 | 17.92266 | 36.33417 | 33944 ft | 468 kts | 357° |
| 2026-05-04 13:47 | 17.98812 | 36.33407 | 33937 ft | 468 kts | 357° |
| 2026-05-04 13:47 | 18.05339 | 36.33396 | 33941 ft | 468 kts | 357° |
| 2026-05-04 13:48 | 18.11867 | 36.33389 | 33947 ft | 468 kts | 357° |
| 2026-05-04 13:48 | 18.18402 | 36.33381 | 33948 ft | 468 kts | 356° |
| 2026-05-04 13:49 | 18.24906 | 36.33373 | 33941 ft | 468 kts | 357° |
| 2026-05-04 13:49 | 18.31465 | 36.33364 | 33949 ft | 468 kts | 356° |
| 2026-05-04 13:50 | 18.37996 | 36.33357 | 33954 ft | 467 kts | 356° |
| 2026-05-04 13:50 | 18.44508 | 36.33349 | 33949 ft | 468 kts | 356° |
| 2026-05-04 13:51 | 18.51041 | 36.33340 | 33960 ft | 467 kts | 356° |
| 2026-05-04 13:51 | 18.57576 | 36.33332 | 33961 ft | 468 kts | 356° |
| 2026-05-04 13:52 | 18.67224 | 36.33319 | 33998 ft | 468 kts | 356° |
| 2026-05-04 13:53 | 18.73777 | 36.33311 | 34014 ft | 468 kts | 356° |
| 2026-05-04 13:53 | 18.80290 | 36.33304 | 34021 ft | 467 kts | 356° |
| 2026-05-04 13:54 | 18.90044 | 36.33291 | 34022 ft | 467 kts | 356° |
| 2026-05-04 13:55 | 18.99889 | 36.33278 | 34025 ft | 469 kts | 356° |
| 2026-05-04 13:55 | 19.09727 | 36.33267 | 34005 ft | 469 kts | 356° |
| 2026-05-04 13:56 | 19.16261 | 36.33260 | 34001 ft | 469 kts | 356° |
| 2026-05-04 13:57 | 19.26078 | 36.33249 | 33987 ft | 467 kts | 356° |
| 2026-05-04 13:58 | 19.39112 | 36.33230 | 33994 ft | 469 kts | 356° |
| 2026-05-04 13:58 | 19.48931 | 36.33216 | 33993 ft | 469 kts | 355° |
| 2026-05-04 13:59 | 19.55505 | 36.33207 | 33991 ft | 470 kts | 355° |
| 2026-05-04 14:00 | 19.65316 | 36.33195 | 33991 ft | 470 kts | 355° |
| 2026-05-04 14:00 | 19.75158 | 36.33184 | 33985 ft | 468 kts | 355° |
| 2026-05-04 14:01 | 19.81663 | 36.33175 | 33975 ft | 469 kts | 355° |
| 2026-05-04 14:02 | 19.91527 | 36.33162 | 33962 ft | 470 kts | 355° |
| 2026-05-04 14:02 | 19.98096 | 36.33154 | 33953 ft | 470 kts | 355° |
| 2026-05-04 14:03 | 20.04636 | 36.33145 | 33949 ft | 470 kts | 355° |
| 2026-05-04 14:03 | 20.11194 | 36.33136 | 33956 ft | 470 kts | 355° |
| 2026-05-04 14:04 | 20.21029 | 36.33126 | 33964 ft | 471 kts | 355° |
| 2026-05-04 14:04 | 20.27571 | 36.33116 | 33959 ft | 470 kts | 355° |
| 2026-05-04 14:05 | 20.37434 | 36.33102 | 33960 ft | 472 kts | 355° |
| 2026-05-04 14:06 | 20.44004 | 36.33096 | 33957 ft | 471 kts | 355° |
| 2026-05-04 14:06 | 20.50555 | 36.33088 | 33956 ft | 471 kts | 354° |
| 2026-05-04 14:07 | 20.57142 | 36.33079 | 33950 ft | 472 kts | 354° |
| 2026-05-04 14:07 | 20.63721 | 36.33069 | 33947 ft | 472 kts | 354° |
| 2026-05-04 14:08 | 20.70289 | 36.32890 | 33941 ft | 467 kts | 348° |
| 2026-05-04 14:08 | 20.76374 | 36.31049 | 33943 ft | 451 kts | 328° |
| 2026-05-04 14:09 | 20.84366 | 36.25880 | 33940 ft | 446 kts | 321° |
| 2026-05-04 14:10 | 20.92168 | 36.20369 | 33942 ft | 448 kts | 321° |
| 2026-05-04 14:10 | 20.97408 | 36.16700 | 33941 ft | 447 kts | 321° |
| 2026-05-04 14:11 | 21.02612 | 36.13081 | 33927 ft | 445 kts | 321° |
| 2026-05-04 14:11 | 21.10419 | 36.07661 | 33906 ft | 445 kts | 321° |
| 2026-05-04 14:12 | 21.15592 | 36.04068 | 33909 ft | 445 kts | 321° |
| 2026-05-04 14:13 | 21.23400 | 35.98640 | 33895 ft | 447 kts | 321° |
| 2026-05-04 14:13 | 21.28606 | 35.95021 | 33897 ft | 445 kts | 321° |
| 2026-05-04 14:14 | 21.33798 | 35.91407 | 33895 ft | 445 kts | 321° |
| 2026-05-04 14:14 | 21.41595 | 35.85975 | 33907 ft | 444 kts | 320° |
| 2026-05-04 14:15 | 21.51937 | 35.78754 | 33925 ft | 445 kts | 320° |
| 2026-05-04 14:16 | 21.59694 | 35.73333 | 33919 ft | 442 kts | 320° |
| 2026-05-04 14:17 | 21.67443 | 35.67905 | 33934 ft | 441 kts | 320° |
| 2026-05-04 14:18 | 21.75134 | 35.62517 | 33963 ft | 442 kts | 320° |
| 2026-05-04 14:19 | 21.85419 | 35.55300 | 33999 ft | 441 kts | 320° |
| 2026-05-04 14:19 | 21.90529 | 35.51704 | 34009 ft | 439 kts | 319° |
| 2026-05-04 14:20 | 21.95617 | 35.48125 | 34010 ft | 437 kts | 319° |
| 2026-05-04 14:20 | 22.00742 | 35.44518 | 34009 ft | 436 kts | 320° |
| 2026-05-04 14:21 | 22.08394 | 35.39190 | 34011 ft | 438 kts | 320° |
| 2026-05-04 14:21 | 22.13526 | 35.35628 | 34000 ft | 438 kts | 320° |
| 2026-05-04 14:22 | 22.18685 | 35.32046 | 33985 ft | 439 kts | 320° |
| 2026-05-04 14:22 | 22.23800 | 35.28485 | 33967 ft | 438 kts | 319° |
| 2026-05-04 14:23 | 22.31500 | 35.23111 | 33947 ft | 439 kts | 319° |
| 2026-05-04 14:24 | 22.36617 | 35.19537 | 33947 ft | 437 kts | 319° |
| 2026-05-04 14:24 | 22.41704 | 35.15982 | 33953 ft | 438 kts | 319° |
| 2026-05-04 14:25 | 22.46861 | 35.12371 | 33957 ft | 437 kts | 319° |
| 2026-05-04 14:25 | 22.54500 | 35.07025 | 33953 ft | 438 kts | 319° |
| 2026-05-04 14:26 | 22.59649 | 35.03412 | 33954 ft | 439 kts | 319° |
| 2026-05-04 14:26 | 22.64765 | 34.99823 | 33961 ft | 437 kts | 319° |
| 2026-05-04 14:27 | 22.69856 | 34.96249 | 33950 ft | 436 kts | 319° |
| 2026-05-04 14:27 | 22.74965 | 34.92656 | 33953 ft | 437 kts | 319° |
| 2026-05-04 14:28 | 22.80056 | 34.89075 | 33951 ft | 437 kts | 319° |
| 2026-05-04 14:28 | 22.85163 | 34.85478 | 33950 ft | 437 kts | 319° |
| 2026-05-04 14:29 | 22.95373 | 34.78272 | 33943 ft | 438 kts | 318° |
| 2026-05-04 14:30 | 23.00472 | 34.74672 | 33938 ft | 435 kts | 318° |
| 2026-05-04 14:31 | 23.08070 | 34.69301 | 33949 ft | 436 kts | 318° |
| 2026-05-04 14:32 | 23.18247 | 34.62095 | 33964 ft | 435 kts | 318° |
| 2026-05-04 14:32 | 23.23325 | 34.58494 | 33976 ft | 434 kts | 318° |
| 2026-05-04 14:33 | 23.28416 | 34.54876 | 33986 ft | 435 kts | 318° |
| 2026-05-04 14:33 | 23.33471 | 34.51287 | 33988 ft | 435 kts | 318° |
| 2026-05-04 14:34 | 23.38550 | 34.47674 | 33981 ft | 434 kts | 318° |
| 2026-05-04 14:34 | 23.43600 | 34.44077 | 33974 ft | 434 kts | 318° |
| 2026-05-04 14:35 | 23.48667 | 34.40465 | 33970 ft | 434 kts | 318° |
| 2026-05-04 14:35 | 23.53719 | 34.36863 | 33962 ft | 434 kts | 318° |
| 2026-05-04 14:36 | 23.58777 | 34.33252 | 33962 ft | 434 kts | 317° |
| 2026-05-04 14:36 | 23.63808 | 34.29660 | 33957 ft | 433 kts | 317° |
| 2026-05-04 14:37 | 23.68865 | 34.26043 | 33948 ft | 434 kts | 317° |
| 2026-05-04 14:37 | 23.73896 | 34.22446 | 33947 ft | 431 kts | 317° |
| 2026-05-04 14:38 | 23.78934 | 34.18834 | 33946 ft | 431 kts | 317° |
| 2026-05-04 14:38 | 23.83932 | 34.15255 | 33946 ft | 431 kts | 317° |
| 2026-05-04 14:39 | 23.88988 | 34.11653 | 33950 ft | 432 kts | 317° |
| 2026-05-04 14:39 | 23.93988 | 34.08100 | 33950 ft | 430 kts | 317° |
| 2026-05-04 14:40 | 24.01543 | 34.02718 | 33953 ft | 431 kts | 317° |
| 2026-05-04 14:40 | 24.06560 | 33.99141 | 33949 ft | 429 kts | 317° |
| 2026-05-04 14:41 | 24.11566 | 33.95564 | 33948 ft | 429 kts | 317° |
| 2026-05-04 14:42 | 24.21563 | 33.88409 | 33950 ft | 428 kts | 317° |
| 2026-05-04 14:42 | 24.26533 | 33.84848 | 33949 ft | 427 kts | 317° |
| 2026-05-04 14:43 | 24.31508 | 33.81279 | 33955 ft | 428 kts | 317° |
| 2026-05-04 14:43 | 24.36496 | 33.77699 | 33957 ft | 428 kts | 317° |
| 2026-05-04 14:44 | 24.41482 | 33.74115 | 33954 ft | 428 kts | 317° |
| 2026-05-04 14:44 | 24.46387 | 33.70586 | 33961 ft | 428 kts | 317° |
| 2026-05-04 14:45 | 24.51378 | 33.66991 | 33962 ft | 428 kts | 317° |
| 2026-05-04 14:45 | 24.56352 | 33.63406 | 33962 ft | 426 kts | 317° |
| 2026-05-04 14:46 | 24.61289 | 33.59846 | 33966 ft | 426 kts | 317° |
| 2026-05-04 14:46 | 24.66237 | 33.56272 | 33967 ft | 427 kts | 317° |
| 2026-05-04 14:47 | 24.71242 | 33.52655 | 33970 ft | 426 kts | 317° |
| 2026-05-04 14:47 | 24.76184 | 33.49082 | 33973 ft | 426 kts | 317° |
| 2026-05-04 14:48 | 24.81145 | 33.45488 | 33969 ft | 427 kts | 317° |
| 2026-05-04 14:48 | 24.86114 | 33.41885 | 33968 ft | 426 kts | 317° |
| 2026-05-04 14:49 | 24.91053 | 33.38301 | 33970 ft | 425 kts | 317° |
| 2026-05-04 14:49 | 24.96011 | 33.34698 | 33965 ft | 427 kts | 317° |
| 2026-05-04 14:50 | 25.00948 | 33.31107 | 33968 ft | 426 kts | 317° |
| 2026-05-04 14:50 | 25.05898 | 33.27508 | 33965 ft | 424 kts | 317° |
| 2026-05-04 14:51 | 25.10845 | 33.23905 | 33977 ft | 425 kts | 317° |
| 2026-05-04 14:51 | 25.15795 | 33.20295 | 33970 ft | 424 kts | 317° |
| 2026-05-04 14:52 | 25.20722 | 33.16702 | 33974 ft | 424 kts | 317° |
| 2026-05-04 14:52 | 25.25648 | 33.13101 | 33974 ft | 424 kts | 317° |
| 2026-05-04 14:53 | 25.30576 | 33.09500 | 33971 ft | 424 kts | 317° |
| 2026-05-04 14:53 | 25.35514 | 33.05885 | 33978 ft | 425 kts | 317° |
| 2026-05-04 14:54 | 25.40472 | 33.02253 | 33977 ft | 425 kts | 317° |
| 2026-05-04 14:54 | 25.45387 | 32.98651 | 33986 ft | 425 kts | 317° |
| 2026-05-04 14:55 | 25.50318 | 32.95031 | 33981 ft | 424 kts | 317° |
| 2026-05-04 14:55 | 25.55247 | 32.91409 | 33982 ft | 425 kts | 317° |
| 2026-05-04 14:56 | 25.60185 | 32.87776 | 33975 ft | 426 kts | 317° |
| 2026-05-04 14:56 | 25.65153 | 32.84118 | 33971 ft | 425 kts | 317° |
| 2026-05-04 14:57 | 25.70083 | 32.80486 | 33960 ft | 425 kts | 317° |
| 2026-05-04 14:57 | 25.74701 | 32.76540 | 33957 ft | 416 kts | 310° |
| 2026-05-04 14:58 | 25.78686 | 32.71957 | 33961 ft | 411 kts | 304° |
| 2026-05-04 14:58 | 25.82361 | 32.67120 | 33960 ft | 408 kts | 302° |
| 2026-05-04 14:59 | 25.85983 | 32.62260 | 33960 ft | 409 kts | 302° |
| 2026-05-04 15:00 | 25.91417 | 32.54975 | 33966 ft | 410 kts | 302° |
| 2026-05-04 15:00 | 25.95065 | 32.50094 | 33972 ft | 411 kts | 302° |
| 2026-05-04 15:01 | 26.00527 | 32.42785 | 33970 ft | 411 kts | 303° |
| 2026-05-04 15:01 | 26.04176 | 32.37898 | 33972 ft | 411 kts | 303° |
| 2026-05-04 15:02 | 26.07820 | 32.33014 | 33985 ft | 409 kts | 302° |
| 2026-05-04 15:02 | 26.11459 | 32.28131 | 34004 ft | 410 kts | 302° |
| 2026-05-04 15:03 | 26.15072 | 32.23274 | 34021 ft | 410 kts | 302° |
| 2026-05-04 15:03 | 26.18702 | 32.18391 | 34018 ft | 409 kts | 302° |
| 2026-05-04 15:04 | 26.22335 | 32.13496 | 34023 ft | 410 kts | 302° |
| 2026-05-04 15:04 | 26.25957 | 32.08610 | 34008 ft | 410 kts | 302° |
| 2026-05-04 15:05 | 26.29590 | 32.03708 | 34010 ft | 410 kts | 302° |
| 2026-05-04 15:05 | 26.33228 | 31.98793 | 34010 ft | 410 kts | 302° |
| 2026-05-04 15:06 | 26.36865 | 31.93874 | 34023 ft | 410 kts | 302° |
| 2026-05-04 15:07 | 26.42307 | 31.86503 | 34012 ft | 412 kts | 302° |
| 2026-05-04 15:07 | 26.45945 | 31.81566 | 34020 ft | 411 kts | 302° |
| 2026-05-04 15:08 | 26.49593 | 31.76613 | 34013 ft | 410 kts | 303° |
| 2026-05-04 15:08 | 26.53204 | 31.71706 | 34013 ft | 410 kts | 303° |
| 2026-05-04 15:09 | 26.56813 | 31.66793 | 34019 ft | 410 kts | 303° |
| 2026-05-04 15:09 | 26.60412 | 31.61891 | 34023 ft | 410 kts | 303° |
| 2026-05-04 15:10 | 26.65845 | 31.54477 | 34023 ft | 411 kts | 303° |
| 2026-05-04 15:11 | 26.71240 | 31.47108 | 34023 ft | 410 kts | 303° |
| 2026-05-04 15:11 | 26.74850 | 31.42165 | 34015 ft | 411 kts | 303° |
| 2026-05-04 15:12 | 26.78457 | 31.37225 | 34026 ft | 408 kts | 303° |
| 2026-05-04 15:12 | 26.82055 | 31.32290 | 34035 ft | 409 kts | 303° |
| 2026-05-04 15:13 | 26.85658 | 31.27342 | 34037 ft | 410 kts | 303° |
| 2026-05-04 15:13 | 26.89263 | 31.22389 | 34041 ft | 409 kts | 303° |
| 2026-05-04 15:14 | 26.92839 | 31.17470 | 34049 ft | 408 kts | 303° |
| 2026-05-04 15:14 | 26.96439 | 31.12543 | 34065 ft | 409 kts | 304° |
| 2026-05-04 15:15 | 27.00610 | 31.08167 | 34066 ft | 423 kts | 320° |
| 2026-05-04 15:15 | 27.06068 | 31.05422 | 34071 ft | 439 kts | 335° |
| 2026-05-04 15:16 | 27.12207 | 31.04203 | 34067 ft | 457 kts | 351° |
| 2026-05-04 15:16 | 27.15421 | 31.04284 | 34060 ft | 464 kts | 355° |
| 2026-05-04 15:17 | 27.25115 | 31.05401 | 34038 ft | 467 kts | 358° |
| 2026-05-04 15:17 | 27.34787 | 31.06639 | 34030 ft | 465 kts | 358° |
| 2026-05-04 15:18 | 27.41233 | 31.07407 | 34025 ft | 464 kts | 358° |
| 2026-05-04 15:19 | 27.50874 | 31.08497 | 34032 ft | 465 kts | 357° |
| 2026-05-04 15:19 | 27.60565 | 31.09577 | 34032 ft | 467 kts | 357° |
| 2026-05-04 15:20 | 27.67054 | 31.10298 | 34035 ft | 465 kts | 357° |
| 2026-05-04 15:20 | 27.73481 | 31.11016 | 34036 ft | 464 kts | 357° |
| 2026-05-04 15:21 | 27.79906 | 31.11731 | 34039 ft | 466 kts | 357° |
| 2026-05-04 15:22 | 27.89603 | 31.12813 | 34034 ft | 464 kts | 357° |
| 2026-05-04 15:22 | 27.99261 | 31.13894 | 34031 ft | 464 kts | 357° |
| 2026-05-04 15:23 | 28.05685 | 31.14612 | 34034 ft | 466 kts | 356° |
| 2026-05-04 15:23 | 28.12150 | 31.15333 | 34030 ft | 464 kts | 356° |
| 2026-05-04 15:24 | 28.25027 | 31.16771 | 34031 ft | 466 kts | 357° |
| 2026-05-04 15:25 | 28.31492 | 31.17496 | 34037 ft | 464 kts | 357° |
| 2026-05-04 15:26 | 28.41159 | 31.18576 | 34041 ft | 467 kts | 356° |
| 2026-05-04 15:26 | 28.50836 | 31.19665 | 34037 ft | 466 kts | 356° |
| 2026-05-04 15:27 | 28.60506 | 31.20754 | 34027 ft | 465 kts | 356° |
| 2026-05-04 15:28 | 28.70195 | 31.21847 | 34029 ft | 465 kts | 356° |
| 2026-05-04 15:29 | 28.79912 | 31.22996 | 34024 ft | 467 kts | 357° |
| 2026-05-04 15:30 | 29.02576 | 31.25759 | 34026 ft | 467 kts | 357° |
| 2026-05-04 15:31 | 29.12280 | 31.26941 | 34026 ft | 466 kts | 357° |
| 2026-05-04 15:32 | 29.28477 | 31.28909 | 34027 ft | 467 kts | 356° |
| 2026-05-04 15:34 | 29.44480 | 31.33273 | 34034 ft | 495 kts | 20° |
| 2026-05-04 15:34 | 29.53445 | 31.39388 | 34039 ft | 503 kts | 24° |
| 2026-05-04 15:35 | 29.62309 | 31.45760 | 34046 ft | 502 kts | 24° |
| 2026-05-04 15:36 | 29.71230 | 31.52068 | 34054 ft | 503 kts | 24° |
| 2026-05-04 15:36 | 29.77238 | 31.56281 | 34065 ft | 503 kts | 23° |
| 2026-05-04 15:37 | 29.83214 | 31.60465 | 34070 ft | 503 kts | 23° |
| 2026-05-04 15:37 | 29.89320 | 31.64163 | 34076 ft | 490 kts | 11° |
| 2026-05-04 15:38 | 29.92555 | 31.65117 | 34076 ft | 472 kts | 358° |
| 2026-05-04 15:38 | 29.95784 | 31.65310 | 34077 ft | 458 kts | 348° |
| 2026-05-04 15:38 | 30.02107 | 31.64543 | 34075 ft | 451 kts | 342° |
| 2026-05-04 15:39 | 30.08284 | 31.63436 | 34074 ft | 448 kts | 341° |
| 2026-05-04 15:40 | 30.17506 | 31.61704 | 34068 ft | 448 kts | 341° |
| 2026-05-04 15:40 | 30.23670 | 31.60570 | 34065 ft | 448 kts | 341° |
| 2026-05-04 15:41 | 30.29856 | 31.59446 | 34061 ft | 447 kts | 341° |
| 2026-05-04 15:41 | 30.36017 | 31.58331 | 34062 ft | 449 kts | 341° |
| 2026-05-04 15:42 | 30.42196 | 31.57216 | 34064 ft | 446 kts | 341° |
| 2026-05-04 15:42 | 30.48355 | 31.56104 | 34061 ft | 446 kts | 341° |
| 2026-05-04 15:43 | 30.54491 | 31.54991 | 34061 ft | 447 kts | 341° |
| 2026-05-04 15:43 | 30.60644 | 31.53877 | 34062 ft | 447 kts | 341° |
| 2026-05-04 15:44 | 30.66800 | 31.52762 | 34063 ft | 446 kts | 341° |
| 2026-05-04 15:44 | 30.72932 | 31.51649 | 34062 ft | 445 kts | 341° |
| 2026-05-04 15:45 | 30.79065 | 31.50531 | 34061 ft | 446 kts | 341° |
| 2026-05-04 15:45 | 30.85166 | 31.49419 | 34061 ft | 444 kts | 341° |
| 2026-05-04 15:46 | 30.91301 | 31.48298 | 34064 ft | 443 kts | 340° |
| 2026-05-04 15:46 | 30.97412 | 31.47179 | 34062 ft | 444 kts | 340° |
| 2026-05-04 15:47 | 31.03498 | 31.46063 | 34062 ft | 444 kts | 340° |
| 2026-05-04 15:47 | 31.09612 | 31.44943 | 34060 ft | 442 kts | 341° |
| 2026-05-04 15:48 | 31.15707 | 31.43822 | 34061 ft | 444 kts | 341° |
| 2026-05-04 15:48 | 31.24863 | 31.42139 | 34054 ft | 443 kts | 341° |
| 2026-05-04 15:49 | 31.30963 | 31.41011 | 34057 ft | 441 kts | 341° |
| 2026-05-04 15:49 | 31.37004 | 31.39894 | 34056 ft | 442 kts | 341° |
| 2026-05-04 15:50 | 31.43101 | 31.38758 | 34050 ft | 442 kts | 341° |
| 2026-05-04 15:50 | 31.49154 | 31.37636 | 34054 ft | 440 kts | 341° |
| 2026-05-04 15:51 | 31.55221 | 31.36504 | 34055 ft | 442 kts | 341° |
| 2026-05-04 15:51 | 31.61361 | 31.35632 | 34051 ft | 446 kts | 345° |
| 2026-05-04 15:52 | 31.67536 | 31.35052 | 34049 ft | 445 kts | 346° |
| 2026-05-04 15:52 | 31.73756 | 31.34481 | 34051 ft | 446 kts | 345° |
| 2026-05-04 15:53 | 31.79905 | 31.33889 | 34053 ft | 444 kts | 345° |
| 2026-05-04 15:53 | 31.86060 | 31.33269 | 34042 ft | 444 kts | 345° |
| 2026-05-04 15:54 | 31.92244 | 31.32627 | 34047 ft | 446 kts | 345° |
| 2026-05-04 15:54 | 31.98417 | 31.31975 | 34047 ft | 445 kts | 345° |
| 2026-05-04 15:55 | 32.04573 | 31.31327 | 34036 ft | 441 kts | 345° |
| 2026-05-04 15:55 | 32.10723 | 31.30672 | 34043 ft | 444 kts | 345° |
| 2026-05-04 15:56 | 32.16853 | 31.30015 | 34038 ft | 443 kts | 345° |
| 2026-05-04 15:56 | 32.23007 | 31.29356 | 34037 ft | 442 kts | 345° |
| 2026-05-04 15:57 | 32.29160 | 31.28693 | 34030 ft | 444 kts | 344° |
| 2026-05-04 15:57 | 32.35300 | 31.28029 | 34023 ft | 443 kts | 344° |
| 2026-05-04 15:58 | 32.41413 | 31.27370 | 34025 ft | 441 kts | 344° |
| 2026-05-04 15:58 | 32.47536 | 31.26707 | 34016 ft | 443 kts | 344° |
| 2026-05-04 15:59 | 32.53668 | 31.25993 | 34015 ft | 440 kts | 342° |
| 2026-05-04 15:59 | 32.59559 | 31.24393 | 34025 ft | 424 kts | 330° |
| 2026-05-04 16:00 | 32.64905 | 31.21657 | 34016 ft | 414 kts | 324° |
| 2026-05-04 16:00 | 32.70031 | 31.18627 | 34017 ft | 414 kts | 323° |
| 2026-05-04 16:01 | 32.75206 | 31.15528 | 34012 ft | 414 kts | 324° |
| 2026-05-04 16:01 | 32.80336 | 31.12490 | 34012 ft | 415 kts | 324° |
| 2026-05-04 16:02 | 32.85510 | 31.09440 | 34016 ft | 414 kts | 324° |
| 2026-05-04 16:03 | 32.93299 | 31.04862 | 34017 ft | 414 kts | 324° |
| 2026-05-04 16:03 | 32.98445 | 31.01838 | 34019 ft | 413 kts | 324° |
| 2026-05-04 16:04 | 33.03594 | 30.98812 | 34029 ft | 412 kts | 324° |
| 2026-05-04 16:04 | 33.11753 | 30.95132 | 34008 ft | 432 kts | 340° |
| 2026-05-04 16:05 | 33.17870 | 30.94466 | 34001 ft | 443 kts | 347° |
| 2026-05-04 16:06 | 33.27158 | 30.94212 | 33972 ft | 445 kts | 349° |
| 2026-05-04 16:07 | 33.39463 | 30.93874 | 33988 ft | 442 kts | 348° |
| 2026-05-04 16:08 | 33.51762 | 30.93430 | 33974 ft | 444 kts | 348° |
| 2026-05-04 16:09 | 33.67183 | 30.92848 | 33961 ft | 442 kts | 349° |
| 2026-05-04 16:10 | 33.79406 | 30.92388 | 33965 ft | 441 kts | 349° |
| 2026-05-04 16:11 | 33.91671 | 30.91920 | 33957 ft | 439 kts | 349° |
| 2026-05-04 16:12 | 34.10023 | 30.90990 | 33942 ft | 440 kts | 348° |
| 2026-05-04 16:13 | 34.22276 | 30.90290 | 33938 ft | 439 kts | 348° |
| 2026-05-04 16:14 | 34.34504 | 30.89657 | 33926 ft | 441 kts | 349° |
| 2026-05-04 16:16 | 34.49846 | 30.88917 | 33917 ft | 441 kts | 350° |
| 2026-05-04 16:17 | 34.65207 | 30.88182 | 33912 ft | 443 kts | 351° |
| 2026-05-04 16:18 | 34.77574 | 30.87789 | 33911 ft | 444 kts | 352° |
| 2026-05-04 16:19 | 34.92983 | 30.87299 | 33907 ft | 445 kts | 352° |
| 2026-05-04 16:20 | 35.08523 | 30.86787 | 33910 ft | 445 kts | 353° |
| 2026-05-04 16:22 | 35.24040 | 30.86267 | 33900 ft | 446 kts | 353° |
| 2026-05-04 16:23 | 35.42707 | 30.85643 | 33895 ft | 444 kts | 354° |
| 2026-05-04 16:25 | 35.61257 | 30.85016 | 33887 ft | 444 kts | 354° |
| 2026-05-04 16:26 | 35.82918 | 30.83744 | 33885 ft | 444 kts | 353° |
| 2026-05-04 16:28 | 35.98423 | 30.82792 | 33883 ft | 445 kts | 354° |
| 2026-05-04 16:29 | 36.20439 | 30.81869 | 33887 ft | 443 kts | 355° |
| 2026-05-04 16:31 | 36.35812 | 30.81387 | 33892 ft | 440 kts | 355° |
| 2026-05-04 16:32 | 36.54144 | 30.80768 | 33895 ft | 436 kts | 355° |
| 2026-05-04 16:33 | 36.66268 | 30.80348 | 33919 ft | 432 kts | 356° |
| 2026-05-04 16:34 | 36.75320 | 30.80034 | 33908 ft | 434 kts | 355° |
| 2026-05-04 16:35 | 36.93404 | 30.79383 | 33916 ft | 428 kts | 355° |
| 2026-05-04 16:36 | 37.02312 | 30.78351 | 33920 ft | 427 kts | 352° |
| 2026-05-04 16:37 | 37.11191 | 30.77132 | 33944 ft | 425 kts | 352° |
| 2026-05-04 16:38 | 37.22978 | 30.75618 | 33953 ft | 424 kts | 352° |
| 2026-05-04 16:39 | 37.37707 | 30.73768 | 33974 ft | 423 kts | 353° |
| 2026-05-04 16:40 | 37.49420 | 30.72185 | 33961 ft | 422 kts | 352° |
| 2026-05-04 16:41 | 37.63948 | 30.70101 | 33940 ft | 419 kts | 353° |
| 2026-05-04 16:43 | 37.78532 | 30.68333 | 33908 ft | 418 kts | 353° |
| 2026-05-04 16:43 | 37.87231 | 30.67261 | 33930 ft | 419 kts | 353° |
| 2026-05-04 16:45 | 38.04610 | 30.65152 | 33949 ft | 417 kts | 356° |
| 2026-05-04 16:46 | 38.19125 | 30.64430 | 33961 ft | 417 kts | 356° |
| 2026-05-04 16:47 | 38.30747 | 30.63766 | 33966 ft | 415 kts | 356° |
| 2026-05-04 16:48 | 38.42307 | 30.63075 | 33971 ft | 416 kts | 356° |
| 2026-05-04 16:49 | 38.53918 | 30.62378 | 33967 ft | 416 kts | 356° |
| 2026-05-04 16:50 | 38.65501 | 30.61682 | 33960 ft | 415 kts | 356° |
| 2026-05-04 16:51 | 38.74029 | 30.59820 | 33966 ft | 415 kts | 340° |
| 2026-05-04 16:52 | 38.84425 | 30.53381 | 33978 ft | 417 kts | 334° |
| 2026-05-04 16:53 | 38.92174 | 30.48197 | 33964 ft | 417 kts | 334° |
| 2026-05-04 16:54 | 39.02517 | 30.41355 | 33974 ft | 416 kts | 335° |
| 2026-05-04 16:55 | 39.18050 | 30.31083 | 33979 ft | 419 kts | 334° |
| 2026-05-04 16:56 | 39.31066 | 30.22437 | 33963 ft | 421 kts | 335° |
| 2026-05-04 16:57 | 39.38859 | 30.17246 | 33947 ft | 420 kts | 335° |
| 2026-05-04 16:58 | 39.49318 | 30.10419 | 33963 ft | 420 kts | 338° |
| 2026-05-04 17:00 | 39.65530 | 30.01552 | 33960 ft | 422 kts | 339° |
| 2026-05-04 17:01 | 39.79058 | 29.94012 | 33947 ft | 422 kts | 339° |
| 2026-05-04 17:02 | 39.89941 | 29.88163 | 33980 ft | 419 kts | 346° |
| 2026-05-04 17:02 | 39.95621 | 29.86930 | 33720 ft | 409 kts | 359° |
| 2026-05-04 17:03 | 39.98492 | 29.86797 | 33092 ft | 409 kts | 1° |
| 2026-05-04 17:03 | 40.01308 | 29.86791 | 32395 ft | 410 kts | 2° |
| 2026-05-04 17:03 | 40.06954 | 29.86861 | 31361 ft | 397 kts | 4° |
| 2026-05-04 17:04 | 40.12400 | 29.86908 | 30341 ft | 384 kts | 4° |
| 2026-05-04 17:04 | 40.17696 | 29.86931 | 28991 ft | 377 kts | 4° |
| 2026-05-04 17:05 | 40.22892 | 29.86936 | 28021 ft | 363 kts | 4° |
| 2026-05-04 17:05 | 40.27928 | 29.86929 | 27030 ft | 360 kts | 3° |
| 2026-05-04 17:06 | 40.32954 | 29.86925 | 25414 ft | 361 kts | 4° |
| 2026-05-04 17:06 | 40.35451 | 29.86919 | 24954 ft | 352 kts | 4° |
| 2026-05-04 17:07 | 40.40144 | 29.87358 | 24243 ft | 330 kts | 15° |
| 2026-05-04 17:07 | 40.40907 | 29.87630 | 24100 ft | 327 kts | 19° |
| 2026-05-04 17:07 | 40.44285 | 29.89749 | 23441 ft | 316 kts | 31° |
| 2026-05-04 17:07 | 40.46087 | 29.91298 | 23062 ft | 309 kts | 33° |
| 2026-05-04 17:08 | 40.47841 | 29.92902 | 22716 ft | 302 kts | 33° |
| 2026-05-04 17:08 | 40.51308 | 29.95818 | 22370 ft | 295 kts | 25° |
| 2026-05-04 17:08 | 40.53275 | 29.96675 | 22118 ft | 300 kts | 12° |
| 2026-05-04 17:09 | 40.55345 | 29.96967 | 21709 ft | 301 kts | 5° |
| 2026-05-04 17:09 | 40.57435 | 29.96995 | 21340 ft | 298 kts | 3° |
| 2026-05-04 17:09 | 40.59504 | 29.96965 | 20980 ft | 296 kts | 3° |
| 2026-05-04 17:10 | 40.63654 | 29.96923 | 20255 ft | 296 kts | 3° |
| 2026-05-04 17:10 | 40.69790 | 29.95939 | 19039 ft | 301 kts | 347° |
| 2026-05-04 17:11 | 40.71759 | 29.95062 | 18718 ft | 297 kts | 345° |
| 2026-05-04 17:11 | 40.73711 | 29.94119 | 18384 ft | 298 kts | 344° |
| 2026-05-04 17:11 | 40.77627 | 29.92249 | 17639 ft | 297 kts | 345° |
| 2026-05-04 17:12 | 40.79568 | 29.91346 | 17275 ft | 293 kts | 346° |
| 2026-05-04 17:12 | 40.83391 | 29.89499 | 16538 ft | 293 kts | 340° |
| 2026-05-04 17:13 | 40.86807 | 29.82802 | 15460 ft | 328 kts | 281° |
| 2026-05-04 17:14 | 40.86751 | 29.73788 | 14201 ft | 323 kts | 275° |
| 2026-05-04 17:14 | 40.86695 | 29.70852 | 13794 ft | 321 kts | 275° |
| 2026-05-04 17:14 | 40.86609 | 29.64990 | 13002 ft | 313 kts | 277° |
| 2026-05-04 17:15 | 40.86765 | 29.62170 | 12616 ft | 305 kts | 285° |
| 2026-05-04 17:15 | 40.88868 | 29.57943 | 12109 ft | 270 kts | 334° |
| 2026-05-04 17:16 | 40.92034 | 29.55256 | 11599 ft | 271 kts | 329° |
| 2026-05-04 17:16 | 40.96032 | 29.50104 | 10953 ft | 271 kts | 296° |
| 2026-05-04 17:17 | 40.96400 | 29.47703 | 10852 ft | 265 kts | 285° |
| 2026-05-04 17:17 | 40.97074 | 29.40667 | 9956 ft | 251 kts | 288° |
| 2026-05-04 17:18 | 40.97354 | 29.38384 | 9610 ft | 248 kts | 289° |
| 2026-05-04 17:18 | 40.97909 | 29.33906 | 9040 ft | 245 kts | 288° |
| 2026-05-04 17:19 | 40.98448 | 29.29470 | 8528 ft | 242 kts | 289° |
| 2026-05-04 17:19 | 40.98977 | 29.25092 | 8016 ft | 240 kts | 288° |
| 2026-05-04 17:20 | 40.99520 | 29.20774 | 7507 ft | 237 kts | 289° |
| 2026-05-04 17:20 | 41.00055 | 29.16473 | 7003 ft | 234 kts | 288° |
| 2026-05-04 17:20 | 41.00309 | 29.14337 | 6738 ft | 233 kts | 288° |
| 2026-05-04 17:21 | 41.00008 | 29.10042 | 6229 ft | 255 kts | 252° |
| 2026-05-04 17:21 | 40.98935 | 29.05682 | 5718 ft | 243 kts | 268° |
| 2026-05-04 17:22 | 40.98587 | 29.03485 | 5462 ft | 243 kts | 265° |
| 2026-05-04 17:22 | 40.98152 | 29.01327 | 5211 ft | 244 kts | 263° |
| 2026-05-04 17:23 | 40.96663 | 28.94966 | 4443 ft | 235 kts | 261° |
| 2026-05-04 17:23 | 40.96178 | 28.92907 | 4190 ft | 230 kts | 261° |
| 2026-05-04 17:23 | 40.95271 | 28.89008 | 3986 ft | 213 kts | 261° |
| 2026-05-04 17:24 | 40.94849 | 28.87131 | 3983 ft | 214 kts | 261° |
| 2026-05-04 17:24 | 40.93653 | 28.81467 | 3986 ft | 206 kts | 277° |
| 2026-05-04 17:25 | 40.93937 | 28.79705 | 3988 ft | 193 kts | 306° |
| 2026-05-04 17:25 | 40.95796 | 28.77366 | 3987 ft | 181 kts | 336° |
| 2026-05-04 17:26 | 40.98158 | 28.76407 | 3987 ft | 177 kts | 353° |
| 2026-05-04 17:26 | 41.01838 | 28.76140 | 3986 ft | 177 kts | 359° |
| 2026-05-04 17:27 | 41.04203 | 28.76088 | 3983 ft | 157 kts | 359° |
| 2026-05-04 17:27 | 41.06324 | 28.76048 | 3992 ft | 141 kts | 0° |
| 2026-05-04 17:28 | 41.08257 | 28.76012 | 3950 ft | 140 kts | 360° |
| 2026-05-04 17:29 | 41.11191 | 28.75956 | 3341 ft | 141 kts | 0° |
| 2026-05-04 17:29 | 41.14135 | 28.75906 | 2756 ft | 141 kts | 359° |
| 2026-05-04 17:30 | 41.17121 | 28.75852 | 2164 ft | 143 kts | 360° |
| 2026-05-04 17:31 | 41.19118 | 28.75804 | 1760 ft | 142 kts | 0° |
| 2026-05-04 17:31 | 41.22136 | 28.75789 | 1110 ft | 146 kts | 0° |
| 2026-05-04 17:32 | 41.24184 | 28.75750 | 679 ft | 149 kts | 358° |
| 2026-05-04 17:33 | 41.27116 | 28.75650 | 334 ft | 95 kts | 358° |
| 2026-05-04 17:33 | 41.27626 | 28.75639 | 334 ft | 46 kts | 359° |
| 2026-05-04 17:34 | 41.28145 | 28.75480 | 333 ft | 20 kts | 308° |
| 2026-05-04 17:34 | 41.28099 | 28.75350 | 333 ft | 18 kts | 186° |
| 2026-05-04 17:35 | 41.27975 | 28.75353 | 333 ft | 1 kts | 178° |
| 2026-05-04 17:35 | 41.27925 | 28.75355 | 333 ft | 8 kts | 179° |
| 2026-05-04 17:35 | 41.27840 | 28.75357 | 333 ft | 15 kts | 179° |
| 2026-05-04 17:36 | 41.27718 | 28.75358 | 333 ft | 18 kts | 181° |
| 2026-05-04 17:36 | 41.27622 | 28.75358 | 333 ft | 14 kts | 179° |
| 2026-05-04 17:36 | 41.27507 | 28.75360 | 333 ft | 18 kts | 179° |
| 2026-05-04 17:36 | 41.27363 | 28.75363 | 333 ft | 22 kts | 180° |
| 2026-05-04 17:37 | 41.27226 | 28.75365 | 333 ft | 17 kts | 179° |
| 2026-05-04 17:37 | 41.27092 | 28.75365 | 333 ft | 16 kts | 192° |
| 2026-05-04 17:37 | 41.27052 | 28.75241 | 333 ft | 17 kts | 269° |
| 2026-05-04 17:37 | 41.27052 | 28.75067 | 333 ft | 20 kts | 271° |
| 2026-05-04 17:38 | 41.27050 | 28.74879 | 333 ft | 20 kts | 267° |
| 2026-05-04 17:38 | 41.27050 | 28.74695 | 333 ft | 18 kts | 270° |
| 2026-05-04 17:38 | 41.27007 | 28.74609 | 333 ft | 12 kts | 191° |
| 2026-05-04 17:38 | 41.26907 | 28.74605 | 333 ft | 14 kts | 180° |
| 2026-05-04 17:39 | 41.26698 | 28.74644 | 333 ft | 13 kts | 99° |
| 2026-05-04 17:39 | 41.26700 | 28.74717 | 333 ft | 0 kts | 88° |
| 2026-05-04 17:40 | 41.26700 | 28.74718 | 333 ft | 0 kts | 88° |
| 2026-05-04 17:40 | 41.26700 | 28.74728 | 333 ft | 0 kts | 89° |
| 2026-05-04 17:40 | 41.26700 | 28.74729 | 333 ft | 0 kts | 89° |